sensor_id;sensor_type;location;lat;lon;timestamp;P1;durP1;ratioP1;P2;durP2;ratioP2
76848;SDS011;65814;51.134;16.980;2024-03-08T00:00:17;36.80;;;20.60;;
76848;SDS011;65814;51.134;16.980;2024-03-08T00:03:08;32.50;;;17.40;;
76848;SDS011;65814;51.134;16.980;2024-03-08T00:05:38;36.90;;;19.70;;
76848;SDS011;65814;51.134;16.980;2024-03-08T00:08:06;35.60;;;18.70;;
76848;SDS011;65814;51.134;16.980;2024-03-08T00:10:38;31.80;;;18.80;;
76848;SDS011;65814;51.134;16.980;2024-03-08T00:13:07;38.20;;;21.30;;
76848;SDS011;65814;51.134;16.980;2024-03-08T00:15:34;44.70;;;20.20;;
76848;SDS011;65814;51.134;16.980;2024-03-08T00:18:03;39.20;;;20.20;;
76848;SDS011;65814;51.134;16.980;2024-03-08T00:20:31;40.50;;;21.40;;
76848;SDS011;65814;51.134;16.980;2024-03-08T00:22:59;37.30;;;18.30;;
76848;SDS011;65814;51.134;16.980;2024-03-08T00:25:27;38.30;;;19.40;;
76848;SDS011;65814;51.134;16.980;2024-03-08T00:27:55;34.60;;;18.90;;
76848;SDS011;65814;51.134;16.980;2024-03-08T00:30:27;36.40;;;18.60;;
76848;SDS011;65814;51.134;16.980;2024-03-08T00:32:55;32.70;;;18.90;;
76848;SDS011;65814;51.134;16.980;2024-03-08T00:35:23;41.70;;;21.70;;
76848;SDS011;65814;51.134;16.980;2024-03-08T00:37:51;38.30;;;20.40;;
76848;SDS011;65814;51.134;16.980;2024-03-08T00:40:19;40.30;;;18.90;;
76848;SDS011;65814;51.134;16.980;2024-03-08T00:42:48;36.90;;;19.20;;
76848;SDS011;65814;51.134;16.980;2024-03-08T00:45:15;40.70;;;20.80;;
76848;SDS011;65814;51.134;16.980;2024-03-08T00:47:43;41.40;;;20.10;;
76848;SDS011;65814;51.134;16.980;2024-03-08T00:50:12;39.20;;;20.00;;
76848;SDS011;65814;51.134;16.980;2024-03-08T00:52:40;39.20;;;19.30;;
76848;SDS011;65814;51.134;16.980;2024-03-08T00:55:08;39.70;;;20.50;;
76848;SDS011;65814;51.134;16.980;2024-03-08T00:57:38;42.30;;;21.50;;
76848;SDS011;65814;51.134;16.980;2024-03-08T01:00:06;39.40;;;21.30;;
76848;SDS011;65814;51.134;16.980;2024-03-08T01:02:40;39.80;;;21.30;;
76848;SDS011;65814;51.134;16.980;2024-03-08T01:05:08;41.90;;;20.70;;
76848;SDS011;65814;51.134;16.980;2024-03-08T01:07:36;40.40;;;20.30;;
76848;SDS011;65814;51.134;16.980;2024-03-08T01:10:05;37.80;;;20.10;;
76848;SDS011;65814;51.134;16.980;2024-03-08T01:12:38;41.00;;;21.90;;
76848;SDS011;65814;51.134;16.980;2024-03-08T01:15:07;40.80;;;20.70;;
76848;SDS011;65814;51.134;16.980;2024-03-08T01:17:35;39.50;;;20.70;;
76848;SDS011;65814;51.134;16.980;2024-03-08T01:20:04;37.70;;;20.00;;
76848;SDS011;65814;51.134;16.980;2024-03-08T01:22:33;46.90;;;22.10;;
76848;SDS011;65814;51.134;16.980;2024-03-08T01:25:00;39.60;;;19.10;;
76848;SDS011;65814;51.134;16.980;2024-03-08T01:27:28;36.80;;;19.00;;
76848;SDS011;65814;51.134;16.980;2024-03-08T01:29:56;36.90;;;21.60;;
76848;SDS011;65814;51.134;16.980;2024-03-08T01:32:25;41.30;;;21.30;;
76848;SDS011;65814;51.134;16.980;2024-03-08T01:34:53;37.80;;;21.10;;
76848;SDS011;65814;51.134;16.980;2024-03-08T01:37:21;34.50;;;18.00;;
76848;SDS011;65814;51.134;16.980;2024-03-08T01:39:49;42.40;;;18.50;;
76848;SDS011;65814;51.134;16.980;2024-03-08T01:42:17;43.60;;;20.40;;
76848;SDS011;65814;51.134;16.980;2024-03-08T01:44:45;38.30;;;20.00;;
76848;SDS011;65814;51.134;16.980;2024-03-08T01:47:13;33.90;;;19.40;;
76848;SDS011;65814;51.134;16.980;2024-03-08T01:49:41;39.40;;;20.60;;
76848;SDS011;65814;51.134;16.980;2024-03-08T01:52:09;42.50;;;20.10;;
76848;SDS011;65814;51.134;16.980;2024-03-08T01:54:38;37.50;;;19.60;;
76848;SDS011;65814;51.134;16.980;2024-03-08T01:57:08;40.60;;;23.20;;
76848;SDS011;65814;51.134;16.980;2024-03-08T01:59:36;36.10;;;21.50;;
76848;SDS011;65814;51.134;16.980;2024-03-08T02:02:04;36.80;;;18.00;;
76848;SDS011;65814;51.134;16.980;2024-03-08T02:04:40;39.80;;;21.10;;
76848;SDS011;65814;51.134;16.980;2024-03-08T02:07:08;37.40;;;19.30;;
76848;SDS011;65814;51.134;16.980;2024-03-08T02:09:37;35.40;;;19.40;;
76848;SDS011;65814;51.134;16.980;2024-03-08T02:12:06;37.60;;;20.10;;
76848;SDS011;65814;51.134;16.980;2024-03-08T02:14:37;37.10;;;19.90;;
76848;SDS011;65814;51.134;16.980;2024-03-08T02:17:05;41.10;;;20.00;;
76848;SDS011;65814;51.134;16.980;2024-03-08T02:19:35;37.00;;;18.00;;
76848;SDS011;65814;51.134;16.980;2024-03-08T02:22:04;38.20;;;19.40;;
76848;SDS011;65814;51.134;16.980;2024-03-08T02:24:33;35.40;;;19.60;;
76848;SDS011;65814;51.134;16.980;2024-03-08T02:27:01;38.10;;;20.20;;
76848;SDS011;65814;51.134;16.980;2024-03-08T02:29:29;43.80;;;20.50;;
76848;SDS011;65814;51.134;16.980;2024-03-08T02:31:58;38.30;;;21.30;;
76848;SDS011;65814;51.134;16.980;2024-03-08T02:34:26;37.40;;;21.30;;
76848;SDS011;65814;51.134;16.980;2024-03-08T02:36:54;43.40;;;20.50;;
76848;SDS011;65814;51.134;16.980;2024-03-08T02:39:24;38.90;;;21.80;;
76848;SDS011;65814;51.134;16.980;2024-03-08T02:41:52;36.60;;;19.40;;
76848;SDS011;65814;51.134;16.980;2024-03-08T02:44:22;38.80;;;18.40;;
76848;SDS011;65814;51.134;16.980;2024-03-08T02:46:50;37.60;;;20.50;;
76848;SDS011;65814;51.134;16.980;2024-03-08T02:49:18;38.40;;;19.20;;
76848;SDS011;65814;51.134;16.980;2024-03-08T02:51:46;40.70;;;20.20;;
76848;SDS011;65814;51.134;16.980;2024-03-08T02:54:14;45.40;;;21.40;;
76848;SDS011;65814;51.134;16.980;2024-03-08T02:56:42;41.30;;;19.20;;
76848;SDS011;65814;51.134;16.980;2024-03-08T02:59:09;37.40;;;22.10;;
76848;SDS011;65814;51.134;16.980;2024-03-08T03:01:37;38.20;;;20.30;;
76848;SDS011;65814;51.134;16.980;2024-03-08T03:04:06;42.90;;;19.80;;
76848;SDS011;65814;51.134;16.980;2024-03-08T03:06:33;37.90;;;18.80;;
76848;SDS011;65814;51.134;16.980;2024-03-08T03:09:01;29.00;;;16.60;;
76848;SDS011;65814;51.134;16.980;2024-03-08T03:11:29;33.50;;;17.90;;
76848;SDS011;65814;51.134;16.980;2024-03-08T03:13:57;40.10;;;20.20;;
76848;SDS011;65814;51.134;16.980;2024-03-08T03:16:26;45.80;;;20.40;;
76848;SDS011;65814;51.134;16.980;2024-03-08T03:18:53;35.70;;;19.00;;
76848;SDS011;65814;51.134;16.980;2024-03-08T03:21:21;32.30;;;18.10;;
76848;SDS011;65814;51.134;16.980;2024-03-08T03:23:49;38.40;;;20.80;;
76848;SDS011;65814;51.134;16.980;2024-03-08T03:26:20;37.80;;;18.50;;
76848;SDS011;65814;51.134;16.980;2024-03-08T03:28:49;43.20;;;20.40;;
76848;SDS011;65814;51.134;16.980;2024-03-08T03:31:17;36.60;;;18.30;;
76848;SDS011;65814;51.134;16.980;2024-03-08T03:33:46;40.60;;;19.00;;
76848;SDS011;65814;51.134;16.980;2024-03-08T03:36:14;37.90;;;19.00;;
76848;SDS011;65814;51.134;16.980;2024-03-08T03:38:44;34.80;;;17.40;;
76848;SDS011;65814;51.134;16.980;2024-03-08T03:41:12;37.80;;;19.20;;
76848;SDS011;65814;51.134;16.980;2024-03-08T03:43:42;40.00;;;19.30;;
76848;SDS011;65814;51.134;16.980;2024-03-08T03:46:12;48.90;;;21.80;;
76848;SDS011;65814;51.134;16.980;2024-03-08T03:48:40;51.50;;;23.80;;
76848;SDS011;65814;51.134;16.980;2024-03-08T03:51:10;54.40;;;23.70;;
76848;SDS011;65814;51.134;16.980;2024-03-08T03:53:37;42.50;;;21.40;;
76848;SDS011;65814;51.134;16.980;2024-03-08T03:56:06;37.60;;;19.70;;
76848;SDS011;65814;51.134;16.980;2024-03-08T03:58:34;39.60;;;19.80;;
76848;SDS011;65814;51.134;16.980;2024-03-08T04:01:04;43.10;;;20.30;;
76848;SDS011;65814;51.134;16.980;2024-03-08T04:03:32;35.60;;;18.90;;
76848;SDS011;65814;51.134;16.980;2024-03-08T04:06:00;36.20;;;20.50;;
76848;SDS011;65814;51.134;16.980;2024-03-08T04:08:30;41.60;;;18.80;;
76848;SDS011;65814;51.134;16.980;2024-03-08T04:10:57;38.80;;;21.60;;
76848;SDS011;65814;51.134;16.980;2024-03-08T04:13:26;34.90;;;19.40;;
76848;SDS011;65814;51.134;16.980;2024-03-08T04:15:54;33.20;;;18.10;;
76848;SDS011;65814;51.134;16.980;2024-03-08T04:18:21;35.70;;;18.70;;
76848;SDS011;65814;51.134;16.980;2024-03-08T04:20:49;35.00;;;19.10;;
76848;SDS011;65814;51.134;16.980;2024-03-08T04:23:17;37.00;;;18.90;;
76848;SDS011;65814;51.134;16.980;2024-03-08T04:25:45;32.40;;;17.80;;
76848;SDS011;65814;51.134;16.980;2024-03-08T04:28:13;43.20;;;21.80;;
76848;SDS011;65814;51.134;16.980;2024-03-08T04:30:41;43.40;;;21.20;;
76848;SDS011;65814;51.134;16.980;2024-03-08T04:33:11;46.10;;;23.20;;
76848;SDS011;65814;51.134;16.980;2024-03-08T04:35:39;40.40;;;21.80;;
76848;SDS011;65814;51.134;16.980;2024-03-08T04:38:09;39.50;;;20.00;;
76848;SDS011;65814;51.134;16.980;2024-03-08T04:40:40;35.90;;;19.00;;
76848;SDS011;65814;51.134;16.980;2024-03-08T04:43:08;38.40;;;20.00;;
76848;SDS011;65814;51.134;16.980;2024-03-08T04:45:38;40.30;;;19.70;;
76848;SDS011;65814;51.134;16.980;2024-03-08T04:48:06;36.40;;;18.80;;
76848;SDS011;65814;51.134;16.980;2024-03-08T04:50:35;41.90;;;19.60;;
76848;SDS011;65814;51.134;16.980;2024-03-08T04:53:03;36.60;;;19.50;;
76848;SDS011;65814;51.134;16.980;2024-03-08T04:55:36;36.70;;;18.70;;
76848;SDS011;65814;51.134;16.980;2024-03-08T04:58:04;40.80;;;19.60;;
76848;SDS011;65814;51.134;16.980;2024-03-08T05:00:36;38.90;;;20.70;;
76848;SDS011;65814;51.134;16.980;2024-03-08T05:03:04;41.20;;;20.40;;
76848;SDS011;65814;51.134;16.980;2024-03-08T05:05:32;35.80;;;19.90;;
76848;SDS011;65814;51.134;16.980;2024-03-08T05:08:01;37.90;;;19.90;;
76848;SDS011;65814;51.134;16.980;2024-03-08T05:10:29;41.00;;;19.20;;
76848;SDS011;65814;51.134;16.980;2024-03-08T05:12:57;36.30;;;19.40;;
76848;SDS011;65814;51.134;16.980;2024-03-08T05:15:24;40.50;;;20.10;;
76848;SDS011;65814;51.134;16.980;2024-03-08T05:17:52;35.20;;;19.40;;
76848;SDS011;65814;51.134;16.980;2024-03-08T05:20:20;41.30;;;20.00;;
76848;SDS011;65814;51.134;16.980;2024-03-08T05:22:49;40.10;;;19.60;;
76848;SDS011;65814;51.134;16.980;2024-03-08T05:25:18;39.40;;;18.60;;
76848;SDS011;65814;51.134;16.980;2024-03-08T05:27:46;39.00;;;20.30;;
76848;SDS011;65814;51.134;16.980;2024-03-08T05:30:15;41.30;;;20.50;;
76848;SDS011;65814;51.134;16.980;2024-03-08T05:32:43;36.00;;;19.60;;
76848;SDS011;65814;51.134;16.980;2024-03-08T05:35:14;35.90;;;19.70;;
76848;SDS011;65814;51.134;16.980;2024-03-08T05:37:44;39.60;;;20.60;;
76848;SDS011;65814;51.134;16.980;2024-03-08T05:40:12;36.00;;;20.50;;
76848;SDS011;65814;51.134;16.980;2024-03-08T05:42:45;39.60;;;20.40;;
76848;SDS011;65814;51.134;16.980;2024-03-08T05:45:14;41.50;;;20.90;;
76848;SDS011;65814;51.134;16.980;2024-03-08T05:47:43;40.20;;;19.80;;
76848;SDS011;65814;51.134;16.980;2024-03-08T05:50:11;41.70;;;22.70;;
76848;SDS011;65814;51.134;16.980;2024-03-08T05:52:39;43.10;;;21.70;;
76848;SDS011;65814;51.134;16.980;2024-03-08T05:55:07;45.40;;;22.40;;
76848;SDS011;65814;51.134;16.980;2024-03-08T05:57:38;46.20;;;23.10;;
76848;SDS011;65814;51.134;16.980;2024-03-08T06:00:08;41.50;;;20.90;;
76848;SDS011;65814;51.134;16.980;2024-03-08T06:02:38;37.30;;;19.80;;
76848;SDS011;65814;51.134;16.980;2024-03-08T06:05:12;42.00;;;19.90;;
76848;SDS011;65814;51.134;16.980;2024-03-08T06:07:40;43.20;;;21.20;;
76848;SDS011;65814;51.134;16.980;2024-03-08T06:10:09;41.00;;;22.00;;
76848;SDS011;65814;51.134;16.980;2024-03-08T06:12:38;42.40;;;21.60;;
76848;SDS011;65814;51.134;16.980;2024-03-08T06:15:10;48.80;;;22.10;;
76848;SDS011;65814;51.134;16.980;2024-03-08T06:20:11;36.80;;;18.20;;
76848;SDS011;65814;51.134;16.980;2024-03-08T06:22:41;45.50;;;23.60;;
76848;SDS011;65814;51.134;16.980;2024-03-08T06:25:12;41.50;;;20.40;;
76848;SDS011;65814;51.134;16.980;2024-03-08T06:27:43;46.70;;;23.40;;
76848;SDS011;65814;51.134;16.980;2024-03-08T06:30:13;62.00;;;28.80;;
76848;SDS011;65814;51.134;16.980;2024-03-08T06:32:44;88.90;;;38.90;;
76848;SDS011;65814;51.134;16.980;2024-03-08T06:35:12;47.60;;;24.90;;
76848;SDS011;65814;51.134;16.980;2024-03-08T06:37:40;50.80;;;24.50;;
76848;SDS011;65814;51.134;16.980;2024-03-08T06:40:10;45.00;;;22.90;;
76848;SDS011;65814;51.134;16.980;2024-03-08T06:42:41;42.70;;;23.60;;
76848;SDS011;65814;51.134;16.980;2024-03-08T06:45:10;45.50;;;22.60;;
76848;SDS011;65814;51.134;16.980;2024-03-08T06:47:40;45.10;;;25.20;;
76848;SDS011;65814;51.134;16.980;2024-03-08T06:50:09;42.20;;;21.10;;
76848;SDS011;65814;51.134;16.980;2024-03-08T06:52:39;43.00;;;22.00;;
76848;SDS011;65814;51.134;16.980;2024-03-08T06:55:08;45.90;;;23.80;;
76848;SDS011;65814;51.134;16.980;2024-03-08T06:57:40;41.60;;;22.20;;
76848;SDS011;65814;51.134;16.980;2024-03-08T07:00:08;41.70;;;21.50;;
76848;SDS011;65814;51.134;16.980;2024-03-08T07:02:41;52.60;;;25.40;;
76848;SDS011;65814;51.134;16.980;2024-03-08T07:05:09;46.00;;;21.10;;
76848;SDS011;65814;51.134;16.980;2024-03-08T07:07:38;51.30;;;23.00;;
76848;SDS011;65814;51.134;16.980;2024-03-08T07:10:06;45.40;;;21.90;;
76848;SDS011;65814;51.134;16.980;2024-03-08T07:12:38;43.30;;;21.20;;
76848;SDS011;65814;51.134;16.980;2024-03-08T07:15:06;41.60;;;22.90;;
76848;SDS011;65814;51.134;16.980;2024-03-08T07:17:35;45.60;;;20.70;;
76848;SDS011;65814;51.134;16.980;2024-03-08T07:20:03;46.10;;;22.70;;
76848;SDS011;65814;51.134;16.980;2024-03-08T07:22:39;48.60;;;24.80;;
76848;SDS011;65814;51.134;16.980;2024-03-08T07:25:07;44.80;;;24.60;;
76848;SDS011;65814;51.134;16.980;2024-03-08T07:27:50;45.20;;;25.20;;
76848;SDS011;65814;51.134;16.980;2024-03-08T07:30:20;52.70;;;27.20;;
76848;SDS011;65814;51.134;16.980;2024-03-08T07:33:08;41.10;;;23.10;;
76848;SDS011;65814;51.134;16.980;2024-03-08T07:35:40;49.50;;;23.80;;
76848;SDS011;65814;51.134;16.980;2024-03-08T07:38:10;47.70;;;27.40;;
76848;SDS011;65814;51.134;16.980;2024-03-08T07:40:39;49.20;;;25.50;;
76848;SDS011;65814;51.134;16.980;2024-03-08T07:43:08;45.30;;;22.00;;
76848;SDS011;65814;51.134;16.980;2024-03-08T07:45:37;48.80;;;25.00;;
76848;SDS011;65814;51.134;16.980;2024-03-08T07:48:06;51.20;;;26.90;;
76848;SDS011;65814;51.134;16.980;2024-03-08T07:50:39;46.60;;;24.80;;
76848;SDS011;65814;51.134;16.980;2024-03-08T07:53:08;50.50;;;26.60;;
76848;SDS011;65814;51.134;16.980;2024-03-08T07:55:36;51.60;;;27.20;;
76848;SDS011;65814;51.134;16.980;2024-03-08T07:58:04;52.10;;;24.60;;
76848;SDS011;65814;51.134;16.980;2024-03-08T08:00:32;42.10;;;24.10;;
76848;SDS011;65814;51.134;16.980;2024-03-08T08:03:00;51.50;;;25.20;;
76848;SDS011;65814;51.134;16.980;2024-03-08T08:05:29;49.60;;;25.20;;
76848;SDS011;65814;51.134;16.980;2024-03-08T08:07:58;45.30;;;24.30;;
76848;SDS011;65814;51.134;16.980;2024-03-08T08:10:26;48.70;;;25.60;;
76848;SDS011;65814;51.134;16.980;2024-03-08T08:12:56;49.50;;;25.80;;
76848;SDS011;65814;51.134;16.980;2024-03-08T08:15:24;43.70;;;24.70;;
76848;SDS011;65814;51.134;16.980;2024-03-08T08:17:52;40.70;;;23.60;;
76848;SDS011;65814;51.134;16.980;2024-03-08T08:20:20;49.50;;;24.20;;
76848;SDS011;65814;51.134;16.980;2024-03-08T08:22:49;49.70;;;24.90;;
76848;SDS011;65814;51.134;16.980;2024-03-08T08:25:17;45.00;;;23.90;;
76848;SDS011;65814;51.134;16.980;2024-03-08T08:27:48;45.10;;;23.80;;
76848;SDS011;65814;51.134;16.980;2024-03-08T08:30:16;37.90;;;20.90;;
76848;SDS011;65814;51.134;16.980;2024-03-08T08:32:44;42.40;;;24.00;;
76848;SDS011;65814;51.134;16.980;2024-03-08T08:35:12;45.40;;;23.40;;
76848;SDS011;65814;51.134;16.980;2024-03-08T08:37:40;39.70;;;21.30;;
76848;SDS011;65814;51.134;16.980;2024-03-08T08:40:09;51.60;;;23.20;;
76848;SDS011;65814;51.134;16.980;2024-03-08T08:42:38;47.00;;;25.20;;
76848;SDS011;65814;51.134;16.980;2024-03-08T08:45:06;49.70;;;25.20;;
76848;SDS011;65814;51.134;16.980;2024-03-08T08:47:44;41.90;;;20.20;;
76848;SDS011;65814;51.134;16.980;2024-03-08T08:50:13;37.20;;;21.60;;
76848;SDS011;65814;51.134;16.980;2024-03-08T08:52:41;38.40;;;21.40;;
76848;SDS011;65814;51.134;16.980;2024-03-08T08:55:11;41.20;;;20.20;;
76848;SDS011;65814;51.134;16.980;2024-03-08T08:57:42;40.30;;;21.60;;
76848;SDS011;65814;51.134;16.980;2024-03-08T09:00:11;35.10;;;20.20;;
76848;SDS011;65814;51.134;16.980;2024-03-08T09:02:43;44.30;;;21.70;;
76848;SDS011;65814;51.134;16.980;2024-03-08T09:05:11;37.40;;;20.30;;
76848;SDS011;65814;51.134;16.980;2024-03-08T09:07:40;34.50;;;19.50;;
76848;SDS011;65814;51.134;16.980;2024-03-08T09:10:08;40.50;;;22.70;;
76848;SDS011;65814;51.134;16.980;2024-03-08T09:12:40;38.70;;;22.90;;
76848;SDS011;65814;51.134;16.980;2024-03-08T09:15:08;36.80;;;20.70;;
76848;SDS011;65814;51.134;16.980;2024-03-08T09:17:42;39.70;;;20.40;;
76848;SDS011;65814;51.134;16.980;2024-03-08T09:22:45;34.40;;;18.80;;
76848;SDS011;65814;51.134;16.980;2024-03-08T09:25:14;37.60;;;21.00;;
76848;SDS011;65814;51.134;16.980;2024-03-08T09:27:42;38.50;;;20.60;;
76848;SDS011;65814;51.134;16.980;2024-03-08T09:30:10;34.00;;;19.80;;
76848;SDS011;65814;51.134;16.980;2024-03-08T09:32:41;34.50;;;19.70;;
76848;SDS011;65814;51.134;16.980;2024-03-08T09:35:11;35.10;;;18.40;;
76848;SDS011;65814;51.134;16.980;2024-03-08T09:37:39;40.20;;;21.40;;
76848;SDS011;65814;51.134;16.980;2024-03-08T09:40:07;40.10;;;23.50;;
76848;SDS011;65814;51.134;16.980;2024-03-08T09:42:43;31.80;;;19.20;;
76848;SDS011;65814;51.134;16.980;2024-03-08T09:45:11;31.30;;;17.50;;
76848;SDS011;65814;51.134;16.980;2024-03-08T09:47:40;36.40;;;19.80;;
76848;SDS011;65814;51.134;16.980;2024-03-08T09:50:09;36.10;;;18.70;;
76848;SDS011;65814;51.134;16.980;2024-03-08T09:52:37;32.30;;;18.40;;
76848;SDS011;65814;51.134;16.980;2024-03-08T09:55:11;32.80;;;19.10;;
76848;SDS011;65814;51.134;16.980;2024-03-08T09:57:40;30.50;;;18.80;;
76848;SDS011;65814;51.134;16.980;2024-03-08T10:00:10;29.70;;;17.60;;
76848;SDS011;65814;51.134;16.980;2024-03-08T10:02:46;29.30;;;16.20;;
76848;SDS011;65814;51.134;16.980;2024-03-08T10:05:15;32.30;;;16.10;;
76848;SDS011;65814;51.134;16.980;2024-03-08T10:07:43;33.90;;;19.10;;
76848;SDS011;65814;51.134;16.980;2024-03-08T10:10:11;29.00;;;17.00;;
76848;SDS011;65814;51.134;16.980;2024-03-08T10:12:40;28.50;;;18.30;;
76848;SDS011;65814;51.134;16.980;2024-03-08T10:15:08;27.60;;;17.10;;
76848;SDS011;65814;51.134;16.980;2024-03-08T10:17:36;31.40;;;18.80;;
76848;SDS011;65814;51.134;16.980;2024-03-08T10:20:04;32.80;;;17.50;;
76848;SDS011;65814;51.134;16.980;2024-03-08T10:22:43;28.10;;;16.40;;
76848;SDS011;65814;51.134;16.980;2024-03-08T10:25:33;25.50;;;15.20;;
76848;SDS011;65814;51.134;16.980;2024-03-08T10:28:03;27.10;;;15.10;;
76848;SDS011;65814;51.134;16.980;2024-03-08T10:30:34;29.20;;;16.90;;
76848;SDS011;65814;51.134;16.980;2024-03-08T10:33:02;27.20;;;15.70;;
76848;SDS011;65814;51.134;16.980;2024-03-08T10:35:33;29.00;;;15.90;;
76848;SDS011;65814;51.134;16.980;2024-03-08T10:38:01;26.90;;;15.50;;
76848;SDS011;65814;51.134;16.980;2024-03-08T10:40:34;26.30;;;15.30;;
76848;SDS011;65814;51.134;16.980;2024-03-08T10:43:03;30.00;;;16.00;;
76848;SDS011;65814;51.134;16.980;2024-03-08T10:45:35;25.40;;;16.10;;
76848;SDS011;65814;51.134;16.980;2024-03-08T10:48:09;25.80;;;14.20;;
76848;SDS011;65814;51.134;16.980;2024-03-08T10:50:38;26.20;;;15.30;;
76848;SDS011;65814;51.134;16.980;2024-03-08T10:53:06;29.90;;;15.40;;
76848;SDS011;65814;51.134;16.980;2024-03-08T10:55:35;26.00;;;15.10;;
76848;SDS011;65814;51.134;16.980;2024-03-08T10:58:04;24.00;;;13.90;;
76848;SDS011;65814;51.134;16.980;2024-03-08T11:00:34;20.30;;;12.50;;
76848;SDS011;65814;51.134;16.980;2024-03-08T11:03:04;22.50;;;14.30;;
76848;SDS011;65814;51.134;16.980;2024-03-08T11:10:48;20.60;;;12.00;;
76848;SDS011;65814;51.134;16.980;2024-03-08T11:13:33;20.20;;;12.60;;
76848;SDS011;65814;51.134;16.980;2024-03-08T11:16:07;19.60;;;11.90;;
76848;SDS011;65814;51.134;16.980;2024-03-08T11:18:37;18.90;;;13.00;;
76848;SDS011;65814;51.134;16.980;2024-03-08T11:21:08;19.00;;;11.70;;
76848;SDS011;65814;51.134;16.980;2024-03-08T11:23:40;22.00;;;12.20;;
76848;SDS011;65814;51.134;16.980;2024-03-08T11:26:23;18.60;;;11.90;;
76848;SDS011;65814;51.134;16.980;2024-03-08T11:28:52;15.50;;;10.30;;
76848;SDS011;65814;51.134;16.980;2024-03-08T11:33:49;18.30;;;10.80;;
76848;SDS011;65814;51.134;16.980;2024-03-08T11:36:24;18.30;;;11.90;;
76848;SDS011;65814;51.134;16.980;2024-03-08T11:38:52;19.70;;;12.20;;
76848;SDS011;65814;51.134;16.980;2024-03-08T11:41:23;17.40;;;10.40;;
76848;SDS011;65814;51.134;16.980;2024-03-08T11:44:02;18.50;;;10.40;;
76848;SDS011;65814;51.134;16.980;2024-03-08T11:46:35;20.10;;;11.20;;
76848;SDS011;65814;51.134;16.980;2024-03-08T11:49:03;14.10;;;9.30;;
76848;SDS011;65814;51.134;16.980;2024-03-08T11:51:31;18.90;;;11.30;;
76848;SDS011;65814;51.134;16.980;2024-03-08T11:54:00;15.90;;;10.10;;
76848;SDS011;65814;51.134;16.980;2024-03-08T11:56:28;20.00;;;11.50;;
76848;SDS011;65814;51.134;16.980;2024-03-08T11:58:56;18.50;;;12.80;;
76848;SDS011;65814;51.134;16.980;2024-03-08T12:01:28;15.70;;;10.10;;
76848;SDS011;65814;51.134;16.980;2024-03-08T12:03:57;19.50;;;11.10;;
76848;SDS011;65814;51.134;16.980;2024-03-08T12:06:36;21.20;;;12.40;;
76848;SDS011;65814;51.134;16.980;2024-03-08T12:09:08;18.20;;;10.30;;
76848;SDS011;65814;51.134;16.980;2024-03-08T12:11:38;16.80;;;11.30;;
76848;SDS011;65814;51.134;16.980;2024-03-08T12:14:06;19.00;;;12.00;;
76848;SDS011;65814;51.134;16.980;2024-03-08T12:16:38;21.30;;;12.20;;
76848;SDS011;65814;51.134;16.980;2024-03-08T12:19:06;18.20;;;12.80;;
76848;SDS011;65814;51.134;16.980;2024-03-08T12:21:35;19.30;;;11.70;;
76848;SDS011;65814;51.134;16.980;2024-03-08T12:24:07;20.60;;;11.80;;
76848;SDS011;65814;51.134;16.980;2024-03-08T12:26:37;18.60;;;12.40;;
76848;SDS011;65814;51.134;16.980;2024-03-08T12:29:16;17.80;;;12.30;;
76848;SDS011;65814;51.134;16.980;2024-03-08T12:31:51;20.20;;;11.30;;
76848;SDS011;65814;51.134;16.980;2024-03-08T12:34:22;18.00;;;11.40;;
76848;SDS011;65814;51.134;16.980;2024-03-08T12:36:51;22.90;;;11.90;;
76848;SDS011;65814;51.134;16.980;2024-03-08T12:39:23;20.60;;;12.10;;
76848;SDS011;65814;51.134;16.980;2024-03-08T12:42:01;19.20;;;11.20;;
76848;SDS011;65814;51.134;16.980;2024-03-08T12:44:32;23.80;;;14.00;;
76848;SDS011;65814;51.134;16.980;2024-03-08T12:47:00;27.00;;;13.00;;
76848;SDS011;65814;51.134;16.980;2024-03-08T12:49:28;21.70;;;11.50;;
76848;SDS011;65814;51.134;16.980;2024-03-08T12:51:57;23.00;;;12.00;;
76848;SDS011;65814;51.134;16.980;2024-03-08T12:54:26;35.20;;;17.80;;
76848;SDS011;65814;51.134;16.980;2024-03-08T12:56:54;26.70;;;13.10;;
76848;SDS011;65814;51.134;16.980;2024-03-08T12:59:22;31.80;;;13.50;;
76848;SDS011;65814;51.134;16.980;2024-03-08T13:01:51;27.70;;;13.40;;
76848;SDS011;65814;51.134;16.980;2024-03-08T13:04:21;18.60;;;12.10;;
76848;SDS011;65814;51.134;16.980;2024-03-08T13:06:50;19.90;;;12.70;;
76848;SDS011;65814;51.134;16.980;2024-03-08T13:09:22;18.40;;;11.10;;
76848;SDS011;65814;51.134;16.980;2024-03-08T13:11:50;20.90;;;10.90;;
76848;SDS011;65814;51.134;16.980;2024-03-08T13:14:18;21.60;;;11.60;;
76848;SDS011;65814;51.134;16.980;2024-03-08T13:16:46;16.80;;;12.40;;
76848;SDS011;65814;51.134;16.980;2024-03-08T13:19:16;20.20;;;11.10;;
76848;SDS011;65814;51.134;16.980;2024-03-08T13:21:44;19.20;;;9.90;;
76848;SDS011;65814;51.134;16.980;2024-03-08T13:26:47;16.40;;;9.60;;
76848;SDS011;65814;51.134;16.980;2024-03-08T13:29:15;17.00;;;10.40;;
76848;SDS011;65814;51.134;16.980;2024-03-08T13:31:43;19.60;;;11.00;;
76848;SDS011;65814;51.134;16.980;2024-03-08T13:34:10;18.80;;;11.50;;
76848;SDS011;65814;51.134;16.980;2024-03-08T13:36:39;17.90;;;11.00;;
76848;SDS011;65814;51.134;16.980;2024-03-08T13:39:12;18.00;;;12.10;;
76848;SDS011;65814;51.134;16.980;2024-03-08T13:41:43;18.10;;;10.90;;
76848;SDS011;65814;51.134;16.980;2024-03-08T13:44:12;20.30;;;11.80;;
76848;SDS011;65814;51.134;16.980;2024-03-08T13:46:40;17.70;;;10.70;;
76848;SDS011;65814;51.134;16.980;2024-03-08T13:49:09;19.40;;;10.80;;
76848;SDS011;65814;51.134;16.980;2024-03-08T13:51:38;19.60;;;10.90;;
76848;SDS011;65814;51.134;16.980;2024-03-08T13:54:06;20.20;;;11.90;;
76848;SDS011;65814;51.134;16.980;2024-03-08T13:56:34;19.60;;;11.10;;
76848;SDS011;65814;51.134;16.980;2024-03-08T13:59:02;19.50;;;12.40;;
76848;SDS011;65814;51.134;16.980;2024-03-08T14:01:30;18.30;;;10.70;;
76848;SDS011;65814;51.134;16.980;2024-03-08T14:03:58;18.00;;;11.10;;
76848;SDS011;65814;51.134;16.980;2024-03-08T14:06:27;15.80;;;10.70;;
76848;SDS011;65814;51.134;16.980;2024-03-08T14:08:55;18.90;;;11.30;;
76848;SDS011;65814;51.134;16.980;2024-03-08T14:11:25;20.90;;;11.90;;
76848;SDS011;65814;51.134;16.980;2024-03-08T14:13:53;15.90;;;10.60;;
76848;SDS011;65814;51.134;16.980;2024-03-08T14:16:21;19.00;;;11.10;;
76848;SDS011;65814;51.134;16.980;2024-03-08T14:18:50;18.40;;;12.30;;
76848;SDS011;65814;51.134;16.980;2024-03-08T14:21:18;17.60;;;11.10;;
76848;SDS011;65814;51.134;16.980;2024-03-08T14:23:45;20.10;;;11.40;;
76848;SDS011;65814;51.134;16.980;2024-03-08T14:26:16;17.70;;;11.60;;
76848;SDS011;65814;51.134;16.980;2024-03-08T14:28:44;16.00;;;9.90;;
76848;SDS011;65814;51.134;16.980;2024-03-08T14:31:13;16.10;;;9.70;;
76848;SDS011;65814;51.134;16.980;2024-03-08T14:33:45;15.50;;;10.10;;
76848;SDS011;65814;51.134;16.980;2024-03-08T14:36:17;14.30;;;9.70;;